JIA88 KOKC-KORD
Flight info
| Callsign | JIA88 |
|---|---|
| Flight time | N/A |
| Altitude | 37000 |
| Route | TRUPR3 GTYER WELTS TRTLL6 |
| Aircraft | CRJ9/M-SDFGIRWY/S |
Departure
| Time | 2026-04-26 01:35 |
|---|---|
| Airport | OKC Will Rogers World Airport (KOKC) |
Arrival
| Time | N/A |
|---|---|
| Airport | Chicago O'Hare International Airport (KORD) |
| Time | Latitude | Longitude | Altitude | Speed | Heading |
|---|---|---|---|---|---|
| 2026-04-26 01:00 | 35.39477 | -97.59891 | 1295 ft | 0 kts | 30° |
| 2026-04-26 01:20 | 35.39474 | -97.59893 | 1295 ft | 3 kts | 29° |
| 2026-04-26 01:20 | 35.39452 | -97.59905 | 1295 ft | 3 kts | 16° |
| 2026-04-26 01:21 | 35.39430 | -97.59907 | 1295 ft | 3 kts | 347° |
| 2026-04-26 01:21 | 35.39417 | -97.59896 | 1294 ft | 3 kts | 286° |
| 2026-04-26 01:21 | 35.39417 | -97.59884 | 1295 ft | 1 kts | 270° |
| 2026-04-26 01:21 | 35.39417 | -97.59883 | 1295 ft | 0 kts | 270° |
| 2026-04-26 01:30 | 35.39417 | -97.59884 | 1295 ft | 1 kts | 270° |
| 2026-04-26 01:30 | 35.39421 | -97.59907 | 1294 ft | 5 kts | 291° |
| 2026-04-26 01:30 | 35.39435 | -97.59978 | 1294 ft | 11 kts | 273° |
| 2026-04-26 01:31 | 35.39422 | -97.60054 | 1292 ft | 0 kts | 245° |
| 2026-04-26 01:31 | 35.39418 | -97.60072 | 1291 ft | 4 kts | 268° |
| 2026-04-26 01:31 | 35.39442 | -97.60120 | 1290 ft | 10 kts | 313° |
| 2026-04-26 01:31 | 35.39502 | -97.60192 | 1289 ft | 14 kts | 316° |
| 2026-04-26 01:32 | 35.39583 | -97.60286 | 1289 ft | 18 kts | 316° |
| 2026-04-26 01:32 | 35.39689 | -97.60394 | 1288 ft | 22 kts | 339° |
| 2026-04-26 01:32 | 35.39847 | -97.60400 | 1287 ft | 24 kts | 360° |
| 2026-04-26 01:32 | 35.40020 | -97.60400 | 1290 ft | 25 kts | 0° |
| 2026-04-26 01:33 | 35.40201 | -97.60401 | 1293 ft | 27 kts | 0° |
| 2026-04-26 01:33 | 35.40385 | -97.60401 | 1295 ft | 25 kts | 359° |
| 2026-04-26 01:33 | 35.40520 | -97.60404 | 1295 ft | 15 kts | 359° |
| 2026-04-26 01:33 | 35.40577 | -97.60473 | 1296 ft | 13 kts | 277° |
| 2026-04-26 01:34 | 35.40557 | -97.60574 | 1295 ft | 10 kts | 208° |
| 2026-04-26 01:34 | 35.40374 | -97.60576 | 1293 ft | 59 kts | 177° |
| 2026-04-26 01:34 | 35.39719 | -97.60573 | 1288 ft | 127 kts | 180° |
| 2026-04-26 01:34 | 35.38642 | -97.60572 | 1309 ft | 178 kts | 178° |
| 2026-04-26 01:35 | 35.37343 | -97.60584 | 1880 ft | 185 kts | 176° |
| 2026-04-26 01:35 | 35.36059 | -97.60470 | 2691 ft | 195 kts | 164° |
| 2026-04-26 01:35 | 35.34774 | -97.59691 | 3184 ft | 219 kts | 137° |
| 2026-04-26 01:35 | 35.34086 | -97.58066 | 4068 ft | 225 kts | 96° |
| 2026-04-26 01:36 | 35.34338 | -97.56331 | 4724 ft | 232 kts | 59° |
| 2026-04-26 01:36 | 35.35495 | -97.54945 | 5367 ft | 242 kts | 20° |
| 2026-04-26 01:36 | 35.37136 | -97.54323 | 6037 ft | 255 kts | 12° |
| 2026-04-26 01:37 | 35.40557 | -97.52384 | 7388 ft | 292 kts | 38° |
| 2026-04-26 01:37 | 35.41740 | -97.50887 | 8092 ft | 300 kts | 46° |
| 2026-04-26 01:37 | 35.43007 | -97.48798 | 8862 ft | 310 kts | 54° |
| 2026-04-26 01:37 | 35.44114 | -97.46494 | 9581 ft | 317 kts | 58° |
| 2026-04-26 01:38 | 35.45148 | -97.44068 | 10236 ft | 323 kts | 60° |
| 2026-04-26 01:38 | 35.46178 | -97.41602 | 10920 ft | 326 kts | 60° |
| 2026-04-26 01:38 | 35.47218 | -97.39110 | 11576 ft | 330 kts | 59° |
| 2026-04-26 01:38 | 35.48309 | -97.36569 | 11984 ft | 345 kts | 58° |
| 2026-04-26 01:39 | 35.49488 | -97.33910 | 12178 ft | 366 kts | 58° |
| 2026-04-26 01:39 | 35.50743 | -97.31075 | 12268 ft | 389 kts | 59° |
| 2026-04-26 01:39 | 35.52074 | -97.28064 | 12315 ft | 413 kts | 59° |
| 2026-04-26 01:39 | 35.53474 | -97.24889 | 12532 ft | 427 kts | 59° |
| 2026-04-26 01:40 | 35.54859 | -97.21751 | 13781 ft | 412 kts | 59° |
| 2026-04-26 01:40 | 35.56213 | -97.18684 | 14622 ft | 409 kts | 58° |
| 2026-04-26 01:40 | 35.57559 | -97.15639 | 15194 ft | 413 kts | 58° |
| 2026-04-26 01:40 | 35.58948 | -97.12483 | 15749 ft | 416 kts | 59° |
| 2026-04-26 01:41 | 35.60330 | -97.09347 | 16311 ft | 418 kts | 58° |
| 2026-04-26 01:41 | 35.61696 | -97.06235 | 16805 ft | 421 kts | 58° |
| 2026-04-26 01:41 | 35.63097 | -97.03047 | 17182 ft | 424 kts | 58° |
| 2026-04-26 01:41 | 35.64498 | -96.99854 | 17540 ft | 426 kts | 58° |
| 2026-04-26 01:42 | 35.65915 | -96.96633 | 17901 ft | 428 kts | 58° |
| 2026-04-26 01:42 | 35.67370 | -96.93433 | 18229 ft | 430 kts | 57° |
| 2026-04-26 01:42 | 35.68851 | -96.90236 | 18532 ft | 431 kts | 57° |
| 2026-04-26 01:42 | 35.70347 | -96.87030 | 18823 ft | 433 kts | 57° |
| 2026-04-26 01:43 | 35.71855 | -96.83809 | 19108 ft | 434 kts | 57° |
| 2026-04-26 01:43 | 35.73378 | -96.80597 | 19386 ft | 434 kts | 53° |
| 2026-04-26 01:43 | 35.75239 | -96.77702 | 19643 ft | 430 kts | 43° |
| 2026-04-26 01:43 | 35.77341 | -96.75096 | 19911 ft | 430 kts | 40° |
| 2026-04-26 01:44 | 35.79481 | -96.72507 | 20173 ft | 431 kts | 40° |
| 2026-04-26 01:44 | 35.81592 | -96.69868 | 20431 ft | 433 kts | 42° |
| 2026-04-26 01:44 | 35.83660 | -96.67146 | 20671 ft | 435 kts | 43° |
| 2026-04-26 01:44 | 35.85729 | -96.64418 | 20916 ft | 436 kts | 43° |
| 2026-04-26 01:45 | 35.87805 | -96.61684 | 21144 ft | 437 kts | 43° |
| 2026-04-26 01:45 | 35.89887 | -96.58936 | 21389 ft | 438 kts | 42° |
| 2026-04-26 01:45 | 35.91949 | -96.56160 | 21611 ft | 440 kts | 44° |
| 2026-04-26 01:45 | 35.93930 | -96.53265 | 21827 ft | 442 kts | 46° |
| 2026-04-26 01:46 | 35.95886 | -96.50324 | 22040 ft | 444 kts | 46° |
| 2026-04-26 01:46 | 35.97852 | -96.47386 | 22248 ft | 444 kts | 45° |
| 2026-04-26 01:46 | 35.99856 | -96.44474 | 22483 ft | 443 kts | 45° |
| 2026-04-26 01:46 | 36.01807 | -96.41642 | 23373 ft | 425 kts | 45° |
| 2026-04-26 01:47 | 36.03691 | -96.38909 | 24016 ft | 411 kts | 44° |
| 2026-04-26 01:47 | 36.05521 | -96.36258 | 24561 ft | 400 kts | 44° |
| 2026-04-26 01:47 | 36.07308 | -96.33667 | 24999 ft | 393 kts | 43° |
| 2026-04-26 01:47 | 36.09062 | -96.31121 | 25143 ft | 394 kts | 43° |
| 2026-04-26 01:48 | 36.10842 | -96.28533 | 25301 ft | 395 kts | 43° |
| 2026-04-26 01:48 | 36.12626 | -96.25937 | 25461 ft | 396 kts | 43° |
| 2026-04-26 01:48 | 36.14415 | -96.23330 | 25596 ft | 398 kts | 43° |
| 2026-04-26 01:48 | 36.16207 | -96.20717 | 25744 ft | 398 kts | 43° |
| 2026-04-26 01:49 | 36.18000 | -96.18101 | 25888 ft | 399 kts | 43° |
| 2026-04-26 01:49 | 36.19793 | -96.15479 | 26023 ft | 400 kts | 43° |
| 2026-04-26 01:49 | 36.21598 | -96.12845 | 26183 ft | 401 kts | 43° |
| 2026-04-26 01:49 | 36.23407 | -96.10197 | 26316 ft | 402 kts | 43° |
| 2026-04-26 01:50 | 36.25213 | -96.07555 | 26451 ft | 403 kts | 43° |
| 2026-04-26 01:50 | 36.27023 | -96.04901 | 26573 ft | 404 kts | 43° |
| 2026-04-26 01:50 | 36.28840 | -96.02238 | 26708 ft | 405 kts | 43° |
| 2026-04-26 01:50 | 36.30657 | -95.99568 | 26820 ft | 405 kts | 43° |
| 2026-04-26 01:51 | 36.32479 | -95.96894 | 26940 ft | 406 kts | 43° |
| 2026-04-26 01:51 | 36.34301 | -95.94213 | 27069 ft | 407 kts | 43° |
| 2026-04-26 01:51 | 36.36126 | -95.91526 | 27177 ft | 408 kts | 43° |
| 2026-04-26 01:51 | 36.37957 | -95.88836 | 27279 ft | 408 kts | 43° |
| 2026-04-26 01:52 | 36.39789 | -95.86135 | 27400 ft | 409 kts | 43° |
| 2026-04-26 01:52 | 36.41600 | -95.83463 | 27507 ft | 410 kts | 43° |
| 2026-04-26 01:52 | 36.43438 | -95.80753 | 27606 ft | 411 kts | 43° |
| 2026-04-26 01:52 | 36.45276 | -95.78036 | 27715 ft | 411 kts | 43° |
| 2026-04-26 01:53 | 36.47118 | -95.75313 | 27820 ft | 412 kts | 43° |
| 2026-04-26 01:53 | 36.48960 | -95.72586 | 27932 ft | 412 kts | 43° |
| 2026-04-26 01:53 | 36.50804 | -95.69855 | 28026 ft | 413 kts | 43° |
| 2026-04-26 01:53 | 36.52656 | -95.67111 | 28131 ft | 414 kts | 43° |
| 2026-04-26 01:54 | 36.54506 | -95.64371 | 28247 ft | 414 kts | 43° |
| 2026-04-26 01:54 | 36.58209 | -95.58867 | 28435 ft | 415 kts | 43° |
| 2026-04-26 01:55 | 36.61915 | -95.53349 | 28617 ft | 416 kts | 43° |
| 2026-04-26 01:55 | 36.65628 | -95.47819 | 28795 ft | 417 kts | 43° |
| 2026-04-26 01:56 | 36.69327 | -95.42299 | 28947 ft | 419 kts | 43° |
| 2026-04-26 01:56 | 36.73064 | -95.36709 | 29088 ft | 421 kts | 44° |
| 2026-04-26 01:57 | 36.76818 | -95.31086 | 29220 ft | 422 kts | 44° |
| 2026-04-26 01:57 | 36.80585 | -95.25436 | 29353 ft | 424 kts | 44° |
| 2026-04-26 01:58 | 36.84360 | -95.19762 | 29483 ft | 426 kts | 44° |
| 2026-04-26 01:58 | 36.88143 | -95.14071 | 29621 ft | 427 kts | 44° |
| 2026-04-26 01:59 | 36.91936 | -95.08352 | 29770 ft | 427 kts | 43° |
| 2026-04-26 01:59 | 36.95726 | -95.02630 | 29904 ft | 428 kts | 44° |
| 2026-04-26 02:00 | 36.99521 | -94.96887 | 30011 ft | 428 kts | 44° |
| 2026-04-26 02:00 | 37.03292 | -94.91170 | 30099 ft | 429 kts | 44° |
| 2026-04-26 02:01 | 37.07095 | -94.85398 | 30187 ft | 430 kts | 44° |
| 2026-04-26 02:01 | 37.10898 | -94.79620 | 30270 ft | 431 kts | 44° |
| 2026-04-26 02:02 | 37.14709 | -94.73813 | 30362 ft | 432 kts | 43° |
| 2026-04-26 02:02 | 37.18531 | -94.67982 | 30416 ft | 433 kts | 43° |
| 2026-04-26 02:03 | 37.22356 | -94.62136 | 30504 ft | 434 kts | 43° |
| 2026-04-26 02:03 | 37.26197 | -94.56262 | 30565 ft | 436 kts | 43° |
| 2026-04-26 02:04 | 37.30037 | -94.50367 | 30643 ft | 436 kts | 43° |
| 2026-04-26 02:04 | 37.33883 | -94.44454 | 30727 ft | 437 kts | 43° |
| 2026-04-26 02:05 | 37.37731 | -94.38531 | 30779 ft | 438 kts | 43° |
| 2026-04-26 02:05 | 37.41583 | -94.32588 | 30830 ft | 439 kts | 44° |
| 2026-04-26 02:06 | 37.45442 | -94.26619 | 30889 ft | 440 kts | 44° |
| 2026-04-26 02:06 | 37.49303 | -94.20642 | 30945 ft | 440 kts | 44° |
| 2026-04-26 02:07 | 37.53145 | -94.14683 | 31023 ft | 441 kts | 44° |
| 2026-04-26 02:07 | 37.57009 | -94.08675 | 31093 ft | 441 kts | 45° |
| 2026-04-26 02:08 | 37.60877 | -94.02652 | 31168 ft | 442 kts | 45° |
| 2026-04-26 02:08 | 37.61529 | -94.01635 | 31183 ft | 442 kts | 45° |